sensor_id;sensor_type;location;lat;lon;timestamp;P1;durP1;ratioP1;P2;durP2;ratioP2
47599;SDS011;33323;52.124;6.018;2022-09-09T00:04:31;4.93;;;2.42;;
47599;SDS011;33323;52.124;6.018;2022-09-09T00:10:03;3.30;;;1.50;;
47599;SDS011;33323;52.124;6.018;2022-09-09T00:15:56;3.03;;;1.58;;
47599;SDS011;33323;52.124;6.018;2022-09-09T00:21:38;4.60;;;1.65;;
47599;SDS011;33323;52.124;6.018;2022-09-09T00:24:23;3.67;;;1.85;;
47599;SDS011;33323;52.124;6.018;2022-09-09T00:27:01;3.20;;;2.10;;
47599;SDS011;33323;52.124;6.018;2022-09-09T00:29:43;4.68;;;1.88;;
47599;SDS011;33323;52.124;6.018;2022-09-09T00:32:58;3.30;;;1.35;;
47599;SDS011;33323;52.124;6.018;2022-09-09T00:35:37;2.85;;;2.15;;
47599;SDS011;33323;52.124;6.018;2022-09-09T00:38:23;3.95;;;1.77;;
47599;SDS011;33323;52.124;6.018;2022-09-09T00:41:08;6.78;;;3.42;;
47599;SDS011;33323;52.124;6.018;2022-09-09T00:43:43;2.50;;;1.88;;
47599;SDS011;33323;52.124;6.018;2022-09-09T00:52:45;3.15;;;2.28;;
47599;SDS011;33323;52.124;6.018;2022-09-09T00:58:50;4.20;;;2.38;;
47599;SDS011;33323;52.124;6.018;2022-09-09T01:01:31;4.85;;;2.35;;
47599;SDS011;33323;52.124;6.018;2022-09-09T01:03:59;3.42;;;2.13;;
47599;SDS011;33323;52.124;6.018;2022-09-09T01:06:34;3.85;;;2.42;;
47599;SDS011;33323;52.124;6.018;2022-09-09T01:17:12;5.75;;;3.03;;
47599;SDS011;33323;52.124;6.018;2022-09-09T01:20:10;7.15;;;3.25;;
47599;SDS011;33323;52.124;6.018;2022-09-09T01:28:43;4.93;;;3.45;;
47599;SDS011;33323;52.124;6.018;2022-09-09T01:31:17;7.47;;;3.80;;
47599;SDS011;33323;52.124;6.018;2022-09-09T01:33:50;5.55;;;4.32;;
47599;SDS011;33323;52.124;6.018;2022-09-09T01:36:24;5.82;;;3.28;;
47599;SDS011;33323;52.124;6.018;2022-09-09T01:38:59;8.05;;;4.22;;
47599;SDS011;33323;52.124;6.018;2022-09-09T01:41:26;5.63;;;3.45;;
47599;SDS011;33323;52.124;6.018;2022-09-09T01:44:09;5.18;;;3.65;;
47599;SDS011;33323;52.124;6.018;2022-09-09T01:46:38;6.10;;;3.22;;
47599;SDS011;33323;52.124;6.018;2022-09-09T01:49:12;5.03;;;3.10;;
47599;SDS011;33323;52.124;6.018;2022-09-09T01:51:39;5.55;;;3.00;;
47599;SDS011;33323;52.124;6.018;2022-09-09T01:54:11;7.53;;;3.50;;
47599;SDS011;33323;52.124;6.018;2022-09-09T02:02:44;7.95;;;3.60;;
47599;SDS011;33323;52.124;6.018;2022-09-09T02:06:00;5.85;;;2.78;;
47599;SDS011;33323;52.124;6.018;2022-09-09T02:08:49;4.13;;;2.50;;
47599;SDS011;33323;52.124;6.018;2022-09-09T02:11:19;4.75;;;2.65;;
47599;SDS011;33323;52.124;6.018;2022-09-09T02:14:16;3.42;;;2.30;;
47599;SDS011;33323;52.124;6.018;2022-09-09T02:16:54;3.40;;;2.28;;
47599;SDS011;33323;52.124;6.018;2022-09-09T02:19:50;3.53;;;2.35;;
47599;SDS011;33323;52.124;6.018;2022-09-09T02:22:33;5.95;;;2.25;;
47599;SDS011;33323;52.124;6.018;2022-09-09T02:25:07;3.55;;;2.50;;
47599;SDS011;33323;52.124;6.018;2022-09-09T02:27:37;3.63;;;2.22;;
47599;SDS011;33323;52.124;6.018;2022-09-09T02:30:06;3.20;;;2.28;;
47599;SDS011;33323;52.124;6.018;2022-09-09T02:32:43;4.93;;;2.60;;
47599;SDS011;33323;52.124;6.018;2022-09-09T02:35:17;4.85;;;2.30;;
47599;SDS011;33323;52.124;6.018;2022-09-09T02:37:47;5.07;;;2.30;;
47599;SDS011;33323;52.124;6.018;2022-09-09T02:40:17;4.43;;;2.45;;
47599;SDS011;33323;52.124;6.018;2022-09-09T02:42:49;3.35;;;2.47;;
47599;SDS011;33323;52.124;6.018;2022-09-09T02:45:19;4.15;;;2.83;;
47599;SDS011;33323;52.124;6.018;2022-09-09T02:56:25;3.58;;;2.78;;
47599;SDS011;33323;52.124;6.018;2022-09-09T02:58:57;3.95;;;3.03;;
47599;SDS011;33323;52.124;6.018;2022-09-09T03:01:25;9.23;;;3.92;;
47599;SDS011;33323;52.124;6.018;2022-09-09T03:03:52;4.78;;;3.35;;
47599;SDS011;33323;52.124;6.018;2022-09-09T03:06:18;4.05;;;2.75;;
47599;SDS011;33323;52.124;6.018;2022-09-09T03:08:52;7.03;;;4.47;;
47599;SDS011;33323;52.124;6.018;2022-09-09T03:11:26;6.35;;;2.97;;
47599;SDS011;33323;52.124;6.018;2022-09-09T03:13:54;4.60;;;3.22;;
47599;SDS011;33323;52.124;6.018;2022-09-09T03:16:24;7.68;;;3.80;;
47599;SDS011;33323;52.124;6.018;2022-09-09T03:18:52;6.13;;;3.08;;
47599;SDS011;33323;52.124;6.018;2022-09-09T03:21:19;5.20;;;3.03;;
47599;SDS011;33323;52.124;6.018;2022-09-09T03:23:47;5.85;;;3.35;;
47599;SDS011;33323;52.124;6.018;2022-09-09T03:26:15;8.32;;;3.33;;
47599;SDS011;33323;52.124;6.018;2022-09-09T03:28:44;5.40;;;3.00;;
47599;SDS011;33323;52.124;6.018;2022-09-09T03:31:15;8.30;;;2.95;;
47599;SDS011;33323;52.124;6.018;2022-09-09T03:33:42;5.60;;;3.40;;
47599;SDS011;33323;52.124;6.018;2022-09-09T03:36:12;4.43;;;2.85;;
47599;SDS011;33323;52.124;6.018;2022-09-09T03:38:39;4.70;;;3.33;;
47599;SDS011;33323;52.124;6.018;2022-09-09T03:41:06;5.20;;;3.75;;
47599;SDS011;33323;52.124;6.018;2022-09-09T03:43:34;6.78;;;3.95;;
47599;SDS011;33323;52.124;6.018;2022-09-09T03:46:01;7.53;;;3.75;;
47599;SDS011;33323;52.124;6.018;2022-09-09T03:48:29;7.45;;;4.00;;
47599;SDS011;33323;52.124;6.018;2022-09-09T03:50:57;9.00;;;5.07;;
47599;SDS011;33323;52.124;6.018;2022-09-09T03:53:28;8.75;;;3.55;;
47599;SDS011;33323;52.124;6.018;2022-09-09T03:55:56;8.93;;;4.57;;
47599;SDS011;33323;52.124;6.018;2022-09-09T03:58:26;5.88;;;4.05;;
47599;SDS011;33323;52.124;6.018;2022-09-09T04:01:01;9.48;;;4.88;;
47599;SDS011;33323;52.124;6.018;2022-09-09T04:03:28;11.15;;;5.53;;
47599;SDS011;33323;52.124;6.018;2022-09-09T04:05:56;12.30;;;5.60;;
47599;SDS011;33323;52.124;6.018;2022-09-09T04:08:28;9.85;;;5.78;;
47599;SDS011;33323;52.124;6.018;2022-09-09T04:10:58;8.40;;;5.75;;
47599;SDS011;33323;52.124;6.018;2022-09-09T04:13:28;10.15;;;4.63;;
47599;SDS011;33323;52.124;6.018;2022-09-09T04:15:57;16.85;;;5.43;;
47599;SDS011;33323;52.124;6.018;2022-09-09T04:18:27;10.98;;;5.25;;
47599;SDS011;33323;52.124;6.018;2022-09-09T04:20:55;11.50;;;4.65;;
47599;SDS011;33323;52.124;6.018;2022-09-09T04:23:26;9.05;;;5.15;;
47599;SDS011;33323;52.124;6.018;2022-09-09T04:25:58;6.97;;;4.68;;
47599;SDS011;33323;52.124;6.018;2022-09-09T04:28:30;13.90;;;5.30;;
47599;SDS011;33323;52.124;6.018;2022-09-09T04:31:08;8.35;;;4.80;;
47599;SDS011;33323;52.124;6.018;2022-09-09T04:33:46;9.10;;;4.50;;
47599;SDS011;33323;52.124;6.018;2022-09-09T04:36:14;5.85;;;4.65;;
47599;SDS011;33323;52.124;6.018;2022-09-09T04:38:42;8.85;;;5.30;;
47599;SDS011;33323;52.124;6.018;2022-09-09T04:41:10;7.82;;;4.53;;
47599;SDS011;33323;52.124;6.018;2022-09-09T04:43:42;7.18;;;4.78;;
47599;SDS011;33323;52.124;6.018;2022-09-09T04:46:09;13.43;;;5.55;;
47599;SDS011;33323;52.124;6.018;2022-09-09T04:48:37;9.38;;;5.20;;
47599;SDS011;33323;52.124;6.018;2022-09-09T04:51:06;7.78;;;5.32;;
47599;SDS011;33323;52.124;6.018;2022-09-09T04:53:37;11.38;;;4.85;;
47599;SDS011;33323;52.124;6.018;2022-09-09T04:58:43;7.90;;;4.95;;
47599;SDS011;33323;52.124;6.018;2022-09-09T05:01:14;6.32;;;4.65;;
47599;SDS011;33323;52.124;6.018;2022-09-09T05:03:49;8.52;;;4.90;;
47599;SDS011;33323;52.124;6.018;2022-09-09T05:06:20;8.02;;;4.72;;
47599;SDS011;33323;52.124;6.018;2022-09-09T05:08:53;7.78;;;4.18;;
47599;SDS011;33323;52.124;6.018;2022-09-09T05:11:26;12.48;;;5.65;;
47599;SDS011;33323;52.124;6.018;2022-09-09T05:14:01;9.55;;;4.28;;
47599;SDS011;33323;52.124;6.018;2022-09-09T05:16:30;7.00;;;3.90;;
47599;SDS011;33323;52.124;6.018;2022-09-09T05:18:58;7.70;;;3.85;;
47599;SDS011;33323;52.124;6.018;2022-09-09T05:21:33;5.97;;;3.90;;
47599;SDS011;33323;52.124;6.018;2022-09-09T05:24:00;13.50;;;5.15;;
47599;SDS011;33323;52.124;6.018;2022-09-09T05:26:27;7.95;;;4.30;;
47599;SDS011;33323;52.124;6.018;2022-09-09T05:28:56;9.57;;;4.78;;
47599;SDS011;33323;52.124;6.018;2022-09-09T05:31:26;7.10;;;4.15;;
47599;SDS011;33323;52.124;6.018;2022-09-09T05:33:54;11.20;;;4.45;;
47599;SDS011;33323;52.124;6.018;2022-09-09T05:36:22;8.05;;;4.28;;
47599;SDS011;33323;52.124;6.018;2022-09-09T05:38:53;5.88;;;4.25;;
47599;SDS011;33323;52.124;6.018;2022-09-09T05:41:21;7.97;;;4.18;;
47599;SDS011;33323;52.124;6.018;2022-09-09T05:43:51;11.45;;;4.68;;
47599;SDS011;33323;52.124;6.018;2022-09-09T05:46:20;7.10;;;4.20;;
47599;SDS011;33323;52.124;6.018;2022-09-09T05:48:52;8.30;;;5.03;;
47599;SDS011;33323;52.124;6.018;2022-09-09T05:51:26;9.48;;;4.30;;
47599;SDS011;33323;52.124;6.018;2022-09-09T05:53:57;8.68;;;4.45;;
47599;SDS011;33323;52.124;6.018;2022-09-09T05:56:27;9.25;;;4.22;;
47599;SDS011;33323;52.124;6.018;2022-09-09T05:58:57;8.40;;;3.97;;
47599;SDS011;33323;52.124;6.018;2022-09-09T06:01:33;9.73;;;4.47;;
47599;SDS011;33323;52.124;6.018;2022-09-09T06:04:04;9.07;;;4.78;;
47599;SDS011;33323;52.124;6.018;2022-09-09T06:06:35;10.13;;;4.43;;
47599;SDS011;33323;52.124;6.018;2022-09-09T06:09:12;8.75;;;4.43;;
47599;SDS011;33323;52.124;6.018;2022-09-09T06:11:41;11.48;;;4.68;;
47599;SDS011;33323;52.124;6.018;2022-09-09T06:14:11;12.00;;;4.63;;
47599;SDS011;33323;52.124;6.018;2022-09-09T06:16:39;10.18;;;4.53;;
47599;SDS011;33323;52.124;6.018;2022-09-09T06:19:15;17.65;;;5.47;;
47599;SDS011;33323;52.124;6.018;2022-09-09T06:21:42;6.00;;;3.88;;
47599;SDS011;33323;52.124;6.018;2022-09-09T06:24:11;10.82;;;6.65;;
47599;SDS011;33323;52.124;6.018;2022-09-09T06:26:40;9.32;;;4.18;;
47599;SDS011;33323;52.124;6.018;2022-09-09T06:29:10;9.40;;;4.97;;
47599;SDS011;33323;52.124;6.018;2022-09-09T06:31:39;6.97;;;4.10;;
47599;SDS011;33323;52.124;6.018;2022-09-09T06:34:18;12.20;;;4.63;;
47599;SDS011;33323;52.124;6.018;2022-09-09T06:36:48;11.50;;;4.38;;
47599;SDS011;33323;52.124;6.018;2022-09-09T06:39:15;9.80;;;4.05;;
47599;SDS011;33323;52.124;6.018;2022-09-09T06:41:43;9.30;;;3.88;;
47599;SDS011;33323;52.124;6.018;2022-09-09T06:44:29;18.70;;;3.97;;
47599;SDS011;33323;52.124;6.018;2022-09-09T06:47:01;5.65;;;3.28;;
47599;SDS011;33323;52.124;6.018;2022-09-09T06:49:30;8.38;;;3.92;;
47599;SDS011;33323;52.124;6.018;2022-09-09T06:51:56;7.47;;;3.53;;
47599;SDS011;33323;52.124;6.018;2022-09-09T06:54:25;3.63;;;3.15;;
47599;SDS011;33323;52.124;6.018;2022-09-09T06:56:53;5.75;;;3.47;;
47599;SDS011;33323;52.124;6.018;2022-09-09T06:59:22;8.63;;;4.22;;
47599;SDS011;33323;52.124;6.018;2022-09-09T07:01:52;13.68;;;4.13;;
47599;SDS011;33323;52.124;6.018;2022-09-09T07:04:23;9.93;;;3.55;;
47599;SDS011;33323;52.124;6.018;2022-09-09T07:06:51;17.23;;;4.65;;
47599;SDS011;33323;52.124;6.018;2022-09-09T07:09:22;10.52;;;3.05;;
47599;SDS011;33323;52.124;6.018;2022-09-09T07:11:51;9.10;;;3.85;;
47599;SDS011;33323;52.124;6.018;2022-09-09T07:14:22;7.85;;;3.42;;
47599;SDS011;33323;52.124;6.018;2022-09-09T07:16:56;9.85;;;3.63;;
47599;SDS011;33323;52.124;6.018;2022-09-09T07:19:26;13.02;;;3.38;;
47599;SDS011;33323;52.124;6.018;2022-09-09T07:21:54;12.52;;;2.90;;
47599;SDS011;33323;52.124;6.018;2022-09-09T07:24:23;10.63;;;2.70;;
47599;SDS011;33323;52.124;6.018;2022-09-09T07:26:50;6.63;;;2.15;;
47599;SDS011;33323;52.124;6.018;2022-09-09T07:29:18;7.88;;;2.00;;
47599;SDS011;33323;52.124;6.018;2022-09-09T07:31:47;9.63;;;2.42;;
47599;SDS011;33323;52.124;6.018;2022-09-09T07:34:20;12.77;;;2.60;;
47599;SDS011;33323;52.124;6.018;2022-09-09T07:36:47;8.95;;;3.15;;
47599;SDS011;33323;52.124;6.018;2022-09-09T07:39:16;9.60;;;2.42;;
47599;SDS011;33323;52.124;6.018;2022-09-09T07:41:48;8.82;;;1.80;;
47599;SDS011;33323;52.124;6.018;2022-09-09T07:44:19;6.13;;;2.53;;
47599;SDS011;33323;52.124;6.018;2022-09-09T07:46:55;8.98;;;2.17;;
47599;SDS011;33323;52.124;6.018;2022-09-09T07:49:28;8.88;;;1.85;;
47599;SDS011;33323;52.124;6.018;2022-09-09T07:51:59;7.63;;;2.33;;
47599;SDS011;33323;52.124;6.018;2022-09-09T07:54:28;8.52;;;2.03;;
47599;SDS011;33323;52.124;6.018;2022-09-09T07:56:56;7.60;;;2.15;;
47599;SDS011;33323;52.124;6.018;2022-09-09T07:59:27;10.07;;;2.05;;
47599;SDS011;33323;52.124;6.018;2022-09-09T08:01:57;6.22;;;2.38;;
47599;SDS011;33323;52.124;6.018;2022-09-09T08:04:27;7.13;;;1.95;;
47599;SDS011;33323;52.124;6.018;2022-09-09T08:06:56;5.88;;;2.85;;
47599;SDS011;33323;52.124;6.018;2022-09-09T08:09:27;8.90;;;2.30;;
47599;SDS011;33323;52.124;6.018;2022-09-09T08:12:03;4.50;;;2.38;;
47599;SDS011;33323;52.124;6.018;2022-09-09T08:14:32;8.23;;;2.10;;
47599;SDS011;33323;52.124;6.018;2022-09-09T08:17:00;10.50;;;1.90;;
47599;SDS011;33323;52.124;6.018;2022-09-09T08:19:29;9.38;;;3.10;;
47599;SDS011;33323;52.124;6.018;2022-09-09T08:21:59;11.80;;;2.47;;
47599;SDS011;33323;52.124;6.018;2022-09-09T08:24:29;5.70;;;1.40;;
47599;SDS011;33323;52.124;6.018;2022-09-09T08:26:56;4.88;;;1.67;;
47599;SDS011;33323;52.124;6.018;2022-09-09T08:29:23;14.90;;;1.50;;
47599;SDS011;33323;52.124;6.018;2022-09-09T08:31:53;7.15;;;1.42;;
47599;SDS011;33323;52.124;6.018;2022-09-09T08:34:26;7.10;;;1.63;;
47599;SDS011;33323;52.124;6.018;2022-09-09T08:36:56;4.35;;;1.98;;
47599;SDS011;33323;52.124;6.018;2022-09-09T08:39:30;11.90;;;1.90;;
47599;SDS011;33323;52.124;6.018;2022-09-09T08:58:25;12.98;;;2.17;;
47599;SDS011;33323;52.124;6.018;2022-09-09T09:13:17;7.43;;;2.00;;
47599;SDS011;33323;52.124;6.018;2022-09-09T09:15:54;5.47;;;1.77;;
47599;SDS011;33323;52.124;6.018;2022-09-09T09:18:26;5.78;;;1.45;;
47599;SDS011;33323;52.124;6.018;2022-09-09T09:20:57;9.80;;;1.80;;
47599;SDS011;33323;52.124;6.018;2022-09-09T09:23:38;7.05;;;1.30;;
47599;SDS011;33323;52.124;6.018;2022-09-09T09:26:13;5.97;;;1.10;;
47599;SDS011;33323;52.124;6.018;2022-09-09T09:28:41;8.25;;;2.17;;
47599;SDS011;33323;52.124;6.018;2022-09-09T09:31:13;9.93;;;1.67;;
47599;SDS011;33323;52.124;6.018;2022-09-09T09:36:25;3.38;;;1.20;;
47599;SDS011;33323;52.124;6.018;2022-09-09T09:39:05;9.88;;;1.83;;
47599;SDS011;33323;52.124;6.018;2022-09-09T09:41:56;9.20;;;2.25;;
47599;SDS011;33323;52.124;6.018;2022-09-09T09:49:55;6.90;;;1.40;;
47599;SDS011;33323;52.124;6.018;2022-09-09T09:52:31;4.15;;;1.58;;
47599;SDS011;33323;52.124;6.018;2022-09-09T09:55:03;7.78;;;1.27;;
47599;SDS011;33323;52.124;6.018;2022-09-09T09:57:34;6.60;;;1.10;;
47599;SDS011;33323;52.124;6.018;2022-09-09T10:00:15;14.15;;;2.72;;
47599;SDS011;33323;52.124;6.018;2022-09-09T10:03:01;5.28;;;1.45;;
47599;SDS011;33323;52.124;6.018;2022-09-09T10:06:16;3.08;;;1.33;;
47599;SDS011;33323;52.124;6.018;2022-09-09T10:08:44;2.85;;;0.70;;
47599;SDS011;33323;52.124;6.018;2022-09-09T10:11:20;9.60;;;0.80;;
47599;SDS011;33323;52.124;6.018;2022-09-09T10:14:45;5.30;;;0.90;;
47599;SDS011;33323;52.124;6.018;2022-09-09T10:17:35;5.03;;;1.00;;
47599;SDS011;33323;52.124;6.018;2022-09-09T10:20:19;3.97;;;0.90;;
47599;SDS011;33323;52.124;6.018;2022-09-09T10:23:29;6.45;;;1.38;;
47599;SDS011;33323;52.124;6.018;2022-09-09T10:28:59;5.13;;;1.00;;
47599;SDS011;33323;52.124;6.018;2022-09-09T10:32:39;2.42;;;0.60;;
47599;SDS011;33323;52.124;6.018;2022-09-09T10:54:32;4.80;;;1.42;;
47599;SDS011;33323;52.124;6.018;2022-09-09T10:57:39;3.95;;;1.15;;
47599;SDS011;33323;52.124;6.018;2022-09-09T11:00:17;5.80;;;1.65;;
47599;SDS011;33323;52.124;6.018;2022-09-09T11:02:53;9.07;;;1.75;;
47599;SDS011;33323;52.124;6.018;2022-09-09T11:05:35;8.10;;;1.23;;
47599;SDS011;33323;52.124;6.018;2022-09-09T11:13:28;6.88;;;2.38;;
47599;SDS011;33323;52.124;6.018;2022-09-09T11:22:04;5.78;;;1.15;;
47599;SDS011;33323;52.124;6.018;2022-09-09T11:24:45;4.68;;;1.00;;
47599;SDS011;33323;52.124;6.018;2022-09-09T11:39:56;5.03;;;0.65;;
47599;SDS011;33323;52.124;6.018;2022-09-09T11:42:46;4.97;;;0.93;;
47599;SDS011;33323;52.124;6.018;2022-09-09T11:47:55;9.98;;;3.03;;
47599;SDS011;33323;52.124;6.018;2022-09-09T11:53:02;5.32;;;2.47;;
47599;SDS011;33323;52.124;6.018;2022-09-09T12:04:38;3.88;;;1.27;;
47599;SDS011;33323;52.124;6.018;2022-09-09T12:07:33;5.57;;;0.88;;
47599;SDS011;33323;52.124;6.018;2022-09-09T12:13:19;3.75;;;0.82;;
47599;SDS011;33323;52.124;6.018;2022-09-09T12:15:50;7.05;;;1.13;;
47599;SDS011;33323;52.124;6.018;2022-09-09T12:24:10;2.10;;;0.60;;
47599;SDS011;33323;52.124;6.018;2022-09-09T12:32:28;2.30;;;1.05;;
47599;SDS011;33323;52.124;6.018;2022-09-09T12:35:00;2.88;;;0.65;;
47599;SDS011;33323;52.124;6.018;2022-09-09T12:37:37;0.68;;;0.40;;
47599;SDS011;33323;52.124;6.018;2022-09-09T12:40:28;1.38;;;0.50;;
47599;SDS011;33323;52.124;6.018;2022-09-09T12:42:58;4.47;;;1.27;;
47599;SDS011;33323;52.124;6.018;2022-09-09T12:45:31;3.00;;;1.05;;
47599;SDS011;33323;52.124;6.018;2022-09-09T12:48:03;3.30;;;1.08;;
47599;SDS011;33323;52.124;6.018;2022-09-09T12:50:38;3.65;;;1.00;;
47599;SDS011;33323;52.124;6.018;2022-09-09T12:53:31;6.75;;;1.33;;
47599;SDS011;33323;52.124;6.018;2022-09-09T12:56:06;2.45;;;1.10;;
47599;SDS011;33323;52.124;6.018;2022-09-09T12:58:36;4.97;;;0.70;;
47599;SDS011;33323;52.124;6.018;2022-09-09T13:01:05;1.95;;;0.73;;
47599;SDS011;33323;52.124;6.018;2022-09-09T13:03:44;1.88;;;0.70;;
47599;SDS011;33323;52.124;6.018;2022-09-09T13:06:12;4.55;;;0.80;;
47599;SDS011;33323;52.124;6.018;2022-09-09T13:08:55;2.88;;;0.90;;
47599;SDS011;33323;52.124;6.018;2022-09-09T13:11:36;4.10;;;1.00;;
47599;SDS011;33323;52.124;6.018;2022-09-09T13:14:19;4.07;;;1.02;;
47599;SDS011;33323;52.124;6.018;2022-09-09T13:17:04;5.15;;;1.15;;
47599;SDS011;33323;52.124;6.018;2022-09-09T13:19:34;2.30;;;1.08;;
47599;SDS011;33323;52.124;6.018;2022-09-09T13:27:36;4.53;;;0.90;;
47599;SDS011;33323;52.124;6.018;2022-09-09T13:30:20;4.65;;;0.70;;
47599;SDS011;33323;52.124;6.018;2022-09-09T13:35:55;0.68;;;0.30;;
47599;SDS011;33323;52.124;6.018;2022-09-09T13:38:25;4.45;;;1.15;;
47599;SDS011;33323;52.124;6.018;2022-09-09T13:40:56;3.80;;;1.40;;
47599;SDS011;33323;52.124;6.018;2022-09-09T13:43:50;4.35;;;1.25;;
47599;SDS011;33323;52.124;6.018;2022-09-09T13:51:39;4.18;;;1.40;;
47599;SDS011;33323;52.124;6.018;2022-09-09T13:54:14;2.47;;;1.15;;
47599;SDS011;33323;52.124;6.018;2022-09-09T13:56:43;4.88;;;1.42;;
47599;SDS011;33323;52.124;6.018;2022-09-09T13:59:12;6.00;;;1.92;;
47599;SDS011;33323;52.124;6.018;2022-09-09T14:01:41;3.90;;;1.42;;
47599;SDS011;33323;52.124;6.018;2022-09-09T14:04:09;2.55;;;1.00;;
47599;SDS011;33323;52.124;6.018;2022-09-09T14:06:37;2.75;;;1.20;;
47599;SDS011;33323;52.124;6.018;2022-09-09T14:09:06;4.93;;;1.40;;
47599;SDS011;33323;52.124;6.018;2022-09-09T14:11:37;6.13;;;1.60;;
47599;SDS011;33323;52.124;6.018;2022-09-09T14:14:06;5.80;;;2.20;;
47599;SDS011;33323;52.124;6.018;2022-09-09T14:16:33;4.35;;;1.42;;
47599;SDS011;33323;52.124;6.018;2022-09-09T14:19:01;5.28;;;1.40;;
47599;SDS011;33323;52.124;6.018;2022-09-09T14:21:29;3.33;;;1.27;;
47599;SDS011;33323;52.124;6.018;2022-09-09T14:23:56;4.60;;;2.03;;
47599;SDS011;33323;52.124;6.018;2022-09-09T14:26:24;5.22;;;1.25;;
47599;SDS011;33323;52.124;6.018;2022-09-09T14:28:52;3.92;;;1.30;;
47599;SDS011;33323;52.124;6.018;2022-09-09T14:31:21;3.83;;;1.27;;
47599;SDS011;33323;52.124;6.018;2022-09-09T14:33:51;3.83;;;1.60;;
47599;SDS011;33323;52.124;6.018;2022-09-09T14:36:18;6.15;;;1.35;;
47599;SDS011;33323;52.124;6.018;2022-09-09T14:38:46;4.35;;;1.02;;
47599;SDS011;33323;52.124;6.018;2022-09-09T14:41:14;2.45;;;0.98;;
47599;SDS011;33323;52.124;6.018;2022-09-09T14:43:43;2.97;;;0.93;;
47599;SDS011;33323;52.124;6.018;2022-09-09T14:46:12;3.42;;;1.55;;
47599;SDS011;33323;52.124;6.018;2022-09-09T14:48:42;2.78;;;1.25;;
47599;SDS011;33323;52.124;6.018;2022-09-09T14:51:16;2.92;;;0.90;;
47599;SDS011;33323;52.124;6.018;2022-09-09T14:53:46;5.45;;;1.63;;
47599;SDS011;33323;52.124;6.018;2022-09-09T14:56:14;2.80;;;0.88;;
47599;SDS011;33323;52.124;6.018;2022-09-09T14:58:45;5.22;;;1.13;;
47599;SDS011;33323;52.124;6.018;2022-09-09T15:01:13;4.22;;;0.98;;
47599;SDS011;33323;52.124;6.018;2022-09-09T15:03:42;2.33;;;1.15;;
47599;SDS011;33323;52.124;6.018;2022-09-09T15:06:15;3.47;;;1.10;;
47599;SDS011;33323;52.124;6.018;2022-09-09T15:08:43;6.10;;;1.10;;
47599;SDS011;33323;52.124;6.018;2022-09-09T15:11:11;4.78;;;1.50;;
47599;SDS011;33323;52.124;6.018;2022-09-09T15:13:40;7.63;;;1.05;;
47599;SDS011;33323;52.124;6.018;2022-09-09T15:18:43;6.45;;;1.40;;
47599;SDS011;33323;52.124;6.018;2022-09-09T15:21:13;4.03;;;1.33;;
47599;SDS011;33323;52.124;6.018;2022-09-09T15:23:45;3.50;;;1.05;;
47599;SDS011;33323;52.124;6.018;2022-09-09T15:26:13;4.68;;;2.25;;
47599;SDS011;33323;52.124;6.018;2022-09-09T15:28:41;6.05;;;1.10;;
47599;SDS011;33323;52.124;6.018;2022-09-09T15:31:11;4.07;;;0.73;;
47599;SDS011;33323;52.124;6.018;2022-09-09T15:33:50;7.15;;;1.10;;
47599;SDS011;33323;52.124;6.018;2022-09-09T15:36:30;2.45;;;0.77;;
47599;SDS011;33323;52.124;6.018;2022-09-09T15:39:03;3.03;;;0.85;;
47599;SDS011;33323;52.124;6.018;2022-09-09T15:41:33;3.05;;;1.15;;
47599;SDS011;33323;52.124;6.018;2022-09-09T15:44:00;2.80;;;1.00;;
47599;SDS011;33323;52.124;6.018;2022-09-09T15:46:43;2.65;;;0.98;;
47599;SDS011;33323;52.124;6.018;2022-09-09T15:49:15;5.45;;;1.13;;
47599;SDS011;33323;52.124;6.018;2022-09-09T15:51:52;6.30;;;2.55;;
47599;SDS011;33323;52.124;6.018;2022-09-09T15:54:27;4.18;;;1.25;;
47599;SDS011;33323;52.124;6.018;2022-09-09T15:56:59;6.55;;;1.58;;
47599;SDS011;33323;52.124;6.018;2022-09-09T15:59:29;7.28;;;1.90;;
47599;SDS011;33323;52.124;6.018;2022-09-09T16:01:57;4.93;;;2.05;;
47599;SDS011;33323;52.124;6.018;2022-09-09T16:04:26;4.85;;;1.60;;
47599;SDS011;33323;52.124;6.018;2022-09-09T16:06:59;5.68;;;2.42;;
47599;SDS011;33323;52.124;6.018;2022-09-09T16:09:30;8.90;;;1.58;;
47599;SDS011;33323;52.124;6.018;2022-09-09T16:11:59;2.22;;;1.90;;
47599;SDS011;33323;52.124;6.018;2022-09-09T16:14:27;6.47;;;2.00;;
47599;SDS011;33323;52.124;6.018;2022-09-09T16:17:00;6.32;;;2.63;;
47599;SDS011;33323;52.124;6.018;2022-09-09T16:19:27;5.55;;;2.15;;
47599;SDS011;33323;52.124;6.018;2022-09-09T16:21:54;5.25;;;2.78;;
47599;SDS011;33323;52.124;6.018;2022-09-09T16:24:20;6.45;;;2.70;;
47599;SDS011;33323;52.124;6.018;2022-09-09T16:26:48;5.82;;;2.75;;
47599;SDS011;33323;52.124;6.018;2022-09-09T16:29:18;3.92;;;1.70;;
47599;SDS011;33323;52.124;6.018;2022-09-09T16:31:48;7.20;;;2.00;;
47599;SDS011;33323;52.124;6.018;2022-09-09T16:34:16;2.83;;;0.98;;
47599;SDS011;33323;52.124;6.018;2022-09-09T16:36:44;4.32;;;1.00;;
47599;SDS011;33323;52.124;6.018;2022-09-09T16:39:17;4.75;;;0.80;;
47599;SDS011;33323;52.124;6.018;2022-09-09T16:41:47;2.53;;;0.80;;
47599;SDS011;33323;52.124;6.018;2022-09-09T16:44:15;1.23;;;0.65;;
47599;SDS011;33323;52.124;6.018;2022-09-09T16:46:45;3.85;;;0.80;;
47599;SDS011;33323;52.124;6.018;2022-09-09T16:49:15;3.78;;;0.90;;
47599;SDS011;33323;52.124;6.018;2022-09-09T16:51:43;1.55;;;0.80;;
47599;SDS011;33323;52.124;6.018;2022-09-09T16:54:16;3.50;;;1.00;;
47599;SDS011;33323;52.124;6.018;2022-09-09T16:56:44;3.35;;;1.00;;
47599;SDS011;33323;52.124;6.018;2022-09-09T16:59:14;1.77;;;0.90;;
47599;SDS011;33323;52.124;6.018;2022-09-09T17:01:46;4.03;;;0.95;;
47599;SDS011;33323;52.124;6.018;2022-09-09T17:04:20;3.83;;;1.00;;
47599;SDS011;33323;52.124;6.018;2022-09-09T17:06:52;1.73;;;0.80;;
47599;SDS011;33323;52.124;6.018;2022-09-09T17:09:20;3.00;;;1.55;;
47599;SDS011;33323;52.124;6.018;2022-09-09T17:11:49;9.20;;;1.63;;
47599;SDS011;33323;52.124;6.018;2022-09-09T17:14:19;2.95;;;1.45;;
47599;SDS011;33323;52.124;6.018;2022-09-09T17:16:47;3.63;;;1.75;;
47599;SDS011;33323;52.124;6.018;2022-09-09T17:19:15;2.60;;;1.25;;
47599;SDS011;33323;52.124;6.018;2022-09-09T17:21:42;2.30;;;1.80;;
47599;SDS011;33323;52.124;6.018;2022-09-09T17:24:29;4.95;;;2.35;;
47599;SDS011;33323;52.124;6.018;2022-09-09T17:26:56;4.57;;;2.20;;
47599;SDS011;33323;52.124;6.018;2022-09-09T17:29:24;4.50;;;1.85;;
47599;SDS011;33323;52.124;6.018;2022-09-09T17:31:51;3.10;;;1.70;;
47599;SDS011;33323;52.124;6.018;2022-09-09T17:34:19;3.97;;;2.15;;
47599;SDS011;33323;52.124;6.018;2022-09-09T17:36:46;4.57;;;2.17;;
47599;SDS011;33323;52.124;6.018;2022-09-09T17:39:13;2.60;;;1.77;;
47599;SDS011;33323;52.124;6.018;2022-09-09T17:41:40;6.20;;;1.98;;
47599;SDS011;33323;52.124;6.018;2022-09-09T17:44:07;2.35;;;1.67;;
47599;SDS011;33323;52.124;6.018;2022-09-09T17:46:37;2.20;;;1.50;;
47599;SDS011;33323;52.124;6.018;2022-09-09T17:49:07;3.22;;;2.10;;
47599;SDS011;33323;52.124;6.018;2022-09-09T17:51:41;5.88;;;2.58;;
47599;SDS011;33323;52.124;6.018;2022-09-09T17:54:10;2.75;;;2.00;;
47599;SDS011;33323;52.124;6.018;2022-09-09T17:56:43;2.90;;;2.30;;
47599;SDS011;33323;52.124;6.018;2022-09-09T17:59:12;3.10;;;2.15;;
47599;SDS011;33323;52.124;6.018;2022-09-09T18:01:41;5.35;;;3.05;;
47599;SDS011;33323;52.124;6.018;2022-09-09T18:04:11;11.95;;;3.08;;
47599;SDS011;33323;52.124;6.018;2022-09-09T18:06:45;5.05;;;2.20;;
47599;SDS011;33323;52.124;6.018;2022-09-09T18:09:16;6.28;;;2.05;;
47599;SDS011;33323;52.124;6.018;2022-09-09T18:11:47;4.90;;;2.63;;
47599;SDS011;33323;52.124;6.018;2022-09-09T18:14:18;4.38;;;2.78;;
47599;SDS011;33323;52.124;6.018;2022-09-09T18:16:48;7.65;;;2.50;;
47599;SDS011;33323;52.124;6.018;2022-09-09T18:19:17;8.02;;;2.42;;
47599;SDS011;33323;52.124;6.018;2022-09-09T18:21:48;3.63;;;2.67;;